createdAt,value
2018-12-22T00:00:23.399Z,68.43
2018-12-22T00:02:51.730Z,63.40
2018-12-22T00:05:20.066Z,65.07
2018-12-22T00:07:48.391Z,63.93
2018-12-22T00:10:16.720Z,66.57
2018-12-22T00:12:45.405Z,64.33
2018-12-22T00:15:13.759Z,61.70
2018-12-22T00:17:42.360Z,65.80
2018-12-22T00:20:10.685Z,63.47
2018-12-22T00:22:39.022Z,62.83
2018-12-22T00:25:07.358Z,62.77
2018-12-22T00:27:35.685Z,63.07
2018-12-22T00:30:04.025Z,64.43
2018-12-22T00:32:32.363Z,60.53
2018-12-22T00:35:00.691Z,58.53
2018-12-22T00:37:29.027Z,60.53
2018-12-22T00:39:57.359Z,53.87
2018-12-22T00:42:25.679Z,51.80
2018-12-22T00:44:54.014Z,54.13
2018-12-22T00:47:22.335Z,54.00
2018-12-22T00:49:51.677Z,49.57
2018-12-22T00:52:20.005Z,52.23
2018-12-22T00:54:48.334Z,52.27
2018-12-22T00:57:16.662Z,48.40
2018-12-22T00:59:45.013Z,53.17
2018-12-22T01:02:13.365Z,49.13
2018-12-22T01:04:41.679Z,49.60
2018-12-22T01:07:10.006Z,50.80
2018-12-22T01:09:38.341Z,50.17
2018-12-22T01:12:06.680Z,47.10
2018-12-22T01:14:35.015Z,48.50
2018-12-22T01:17:03.388Z,42.23
2018-12-22T01:19:31.700Z,43.60
2018-12-22T01:22:00.013Z,47.90
2018-12-22T01:24:28.343Z,47.63
2018-12-22T01:26:56.684Z,43.90
2018-12-22T01:29:25.030Z,48.23
2018-12-22T01:31:53.394Z,48.53
2018-12-22T01:34:21.722Z,46.00
2018-12-22T01:36:50.060Z,46.47
2018-12-22T01:39:18.367Z,44.93
2018-12-22T01:41:46.702Z,44.87
2018-12-22T01:44:15.007Z,41.03
2018-12-22T01:46:43.344Z,44.03
2018-12-22T01:49:11.714Z,42.90
2018-12-22T01:51:40.041Z,47.97
2018-12-22T01:54:08.368Z,47.53
2018-12-22T01:56:36.706Z,46.50
2018-12-22T01:59:05.022Z,43.10
2018-12-22T02:01:33.350Z,46.23
2018-12-22T02:04:01.703Z,45.60
2018-12-22T02:06:30.042Z,46.00
2018-12-22T02:08:58.378Z,40.37
2018-12-22T02:11:26.716Z,41.23
2018-12-22T02:13:55.041Z,44.87
2018-12-22T02:16:23.388Z,40.50
2018-12-22T02:18:51.721Z,40.20
2018-12-22T02:21:20.071Z,36.83
2018-12-22T02:23:48.395Z,37.23
2018-12-22T02:26:16.734Z,37.80
2018-12-22T02:28:45.078Z,36.53
2018-12-22T02:31:13.409Z,37.50
2018-12-22T02:33:41.735Z,37.63
2018-12-22T02:36:10.068Z,38.37
2018-12-22T02:38:38.406Z,37.90
2018-12-22T02:41:06.729Z,40.17
2018-12-22T02:43:35.051Z,37.20
2018-12-22T02:46:03.369Z,39.67
2018-12-22T02:48:31.704Z,35.93
2018-12-22T02:51:00.040Z,39.40
2018-12-22T02:53:28.366Z,38.17
2018-12-22T02:55:56.726Z,39.03
2018-12-22T02:58:25.063Z,41.83
2018-12-22T03:00:53.385Z,38.30
2018-12-22T03:03:21.734Z,37.70
2018-12-22T03:05:50.057Z,38.27
2018-12-22T03:08:18.403Z,40.20
2018-12-22T03:10:46.737Z,41.23
2018-12-22T03:13:15.059Z,39.33
2018-12-22T03:15:43.376Z,43.60
2018-12-22T03:18:11.703Z,44.37
2018-12-22T03:20:40.040Z,43.37
2018-12-22T03:23:08.354Z,41.47
2018-12-22T03:25:36.702Z,41.33
2018-12-22T03:28:05.034Z,40.10
2018-12-22T03:30:33.363Z,45.63
2018-12-22T03:33:01.698Z,42.50
2018-12-22T03:35:30.020Z,40.87
2018-12-22T03:37:58.342Z,42.40
2018-12-22T03:40:26.676Z,46.80
2018-12-22T03:42:55.007Z,43.97
2018-12-22T03:45:23.327Z,45.00
2018-12-22T03:47:51.660Z,46.27
2018-12-22T03:50:19.985Z,43.67
2018-12-22T03:52:48.324Z,42.50
2018-12-22T03:55:16.649Z,44.00
2018-12-22T03:57:44.979Z,42.10
2018-12-22T04:00:13.439Z,42.77
2018-12-22T04:02:41.949Z,44.30
2018-12-22T04:05:10.282Z,41.67
2018-12-22T04:07:38.608Z,45.60
2018-12-22T04:10:06.939Z,43.00
2018-12-22T04:12:35.270Z,43.03
2018-12-22T04:15:03.595Z,37.40
2018-12-22T04:17:32.151Z,36.23
2018-12-22T04:20:00.249Z,36.97
2018-12-22T04:22:28.593Z,37.33
2018-12-22T04:24:56.902Z,32.43
2018-12-22T04:27:25.227Z,32.13
2018-12-22T04:29:53.556Z,32.77
2018-12-22T04:32:21.946Z,32.10
2018-12-22T04:34:50.197Z,31.30
2018-12-22T04:37:18.520Z,32.70
2018-12-22T04:39:46.848Z,29.60
2018-12-22T04:42:15.179Z,31.53
2018-12-22T04:44:43.494Z,27.57
2018-12-22T04:47:11.817Z,30.53
2018-12-22T04:49:40.572Z,32.07
2018-12-22T04:52:08.903Z,28.93
2018-12-22T04:54:37.228Z,28.90
2018-12-22T04:57:05.554Z,31.60
2018-12-22T04:59:42.697Z,31.30
2018-12-22T05:02:02.468Z,31.37
2018-12-22T05:04:31.664Z,32.50
2018-12-22T05:06:59.983Z,29.47
2018-12-22T05:09:28.321Z,28.73
2018-12-22T05:11:56.945Z,29.33
2018-12-22T05:14:25.340Z,29.83
2018-12-22T05:16:53.587Z,30.07
2018-12-22T05:19:21.916Z,28.53
2018-12-22T05:21:50.285Z,28.97
2018-12-22T05:24:18.635Z,30.63
2018-12-22T05:26:46.938Z,31.03
2018-12-22T05:29:15.266Z,30.90
2018-12-22T05:31:43.598Z,29.10
2018-12-22T05:34:11.934Z,30.17
2018-12-22T05:36:40.510Z,31.20
2018-12-22T05:39:08.847Z,30.10
2018-12-22T05:41:37.184Z,27.93
2018-12-22T05:44:05.517Z,30.10
2018-12-22T05:46:33.853Z,26.73
2018-12-22T05:49:02.170Z,27.90
2018-12-22T05:51:30.507Z,26.60
2018-12-22T05:53:58.830Z,26.10
2018-12-22T05:56:27.156Z,28.27
2018-12-22T05:58:55.504Z,27.03
2018-12-22T06:01:23.816Z,26.17
2018-12-22T06:03:52.137Z,27.67
2018-12-22T06:06:20.470Z,28.80
2018-12-22T06:08:48.790Z,29.50
2018-12-22T06:11:17.134Z,29.77
2018-12-22T06:13:45.451Z,29.70
2018-12-22T06:16:13.772Z,26.53
2018-12-22T06:18:42.113Z,30.20
2018-12-22T06:21:10.435Z,31.03
2018-12-22T06:23:38.755Z,29.57
2018-12-22T06:26:07.095Z,31.27
2018-12-22T06:28:35.416Z,30.83
2018-12-22T06:31:03.743Z,28.20
2018-12-22T06:33:32.058Z,29.53
2018-12-22T06:36:00.427Z,28.17
2018-12-22T06:38:28.768Z,27.57
2018-12-22T06:40:57.489Z,26.43
2018-12-22T06:43:25.837Z,38.50
2018-12-22T06:45:54.181Z,26.23
2018-12-22T06:48:22.510Z,26.60
2018-12-22T06:50:50.876Z,25.57
2018-12-22T06:53:19.246Z,22.67
2018-12-22T06:55:47.635Z,22.90
2018-12-22T06:58:16.031Z,24.27
2018-12-22T07:00:44.394Z,25.60
2018-12-22T07:03:12.732Z,24.13
2018-12-22T07:05:42.639Z,22.20
2018-12-22T07:08:10.964Z,42.30
2018-12-22T07:10:39.552Z,18.67
2018-12-22T07:13:07.678Z,23.07
2018-12-22T07:15:36.018Z,22.17
2018-12-22T07:18:04.347Z,22.30
2018-12-22T07:20:32.696Z,21.70
2018-12-22T07:23:01.025Z,21.63
2018-12-22T07:25:29.751Z,18.40
2018-12-22T07:27:58.076Z,20.30
2018-12-22T07:30:26.661Z,22.30
2018-12-22T07:32:57.059Z,18.50
2018-12-22T07:35:23.071Z,20.23
2018-12-22T07:37:51.398Z,19.43
2018-12-22T07:40:19.729Z,18.63
2018-12-22T07:42:48.096Z,20.30
2018-12-22T07:45:16.723Z,17.70
2018-12-22T07:47:45.048Z,18.27
2018-12-22T07:50:13.419Z,19.77
2018-12-22T07:52:41.760Z,18.27
2018-12-22T07:55:10.162Z,20.63
2018-12-22T07:57:38.515Z,21.57
2018-12-22T08:00:06.853Z,20.83
2018-12-22T08:02:35.185Z,23.20
2018-12-22T08:05:03.540Z,29.93
2018-12-22T08:07:31.873Z,47.73
2018-12-22T08:10:00.232Z,21.93
2018-12-22T08:12:28.584Z,25.90
2018-12-22T08:14:56.919Z,21.33
2018-12-22T08:17:25.250Z,21.83
2018-12-22T08:19:53.573Z,22.33
2018-12-22T08:22:21.968Z,234.60
2018-12-22T08:24:50.250Z,78.40
2018-12-22T08:27:18.621Z,121.20
2018-12-22T08:29:46.940Z,174.93
2018-12-22T08:32:15.294Z,33.53
2018-12-22T08:34:43.624Z,29.47
2018-12-22T08:37:12.168Z,17.47
2018-12-22T08:39:40.415Z,20.30
2018-12-22T08:42:08.749Z,26.77
2018-12-22T08:44:37.079Z,114.00
2018-12-22T08:47:05.418Z,96.37
2018-12-22T08:49:33.751Z,47.73
2018-12-22T08:52:02.089Z,25.30
2018-12-22T08:54:30.424Z,50.60
2018-12-22T08:57:14.448Z,30.80
2018-12-22T08:59:42.933Z,21.43
2018-12-22T09:02:11.257Z,19.20
2018-12-22T09:04:41.537Z,17.87
2018-12-22T09:07:10.155Z,20.17
2018-12-22T09:09:38.496Z,16.50
2018-12-22T09:12:07.803Z,19.90
2018-12-22T09:14:36.134Z,42.00
2018-12-22T09:17:04.771Z,34.43
2018-12-22T09:19:33.107Z,26.07
2018-12-22T09:22:02.029Z,31.73
2018-12-22T09:24:30.509Z,27.57
2018-12-22T09:26:58.838Z,34.47
2018-12-22T09:29:27.178Z,29.57
2018-12-22T09:31:55.511Z,32.50
2018-12-22T09:34:23.846Z,30.10
2018-12-22T09:36:52.490Z,31.63
2018-12-22T09:39:20.909Z,31.07
2018-12-22T09:41:49.227Z,31.73
2018-12-22T09:44:17.784Z,32.93
2018-12-22T09:46:46.683Z,34.30
2018-12-22T09:49:15.039Z,30.80
2018-12-22T09:51:43.581Z,30.60
2018-12-22T09:54:12.461Z,27.93
2018-12-22T09:56:41.100Z,31.23
2018-12-22T09:59:09.205Z,25.47
2018-12-22T10:01:37.537Z,26.83
2018-12-22T10:04:05.870Z,30.40
2018-12-22T10:06:38.013Z,32.57
2018-12-22T10:09:06.430Z,33.83
2018-12-22T10:11:34.747Z,27.33
2018-12-22T10:14:03.103Z,30.70
2018-12-22T10:16:31.528Z,26.60
2018-12-22T10:18:59.785Z,27.43
2018-12-22T10:21:28.105Z,25.07
2018-12-22T10:23:56.469Z,25.40
2018-12-22T10:26:24.795Z,24.63
2018-12-22T10:28:53.122Z,30.40
2018-12-22T10:31:21.485Z,34.73
2018-12-22T10:33:49.862Z,31.33
2018-12-22T10:36:18.193Z,32.90
2018-12-22T10:38:46.613Z,33.17
2018-12-22T10:41:16.133Z,39.33
2018-12-22T10:43:44.445Z,48.67
2018-12-22T10:46:12.794Z,37.53
2018-12-22T10:48:42.141Z,39.40
2018-12-22T10:51:10.487Z,34.33
2018-12-22T10:53:38.817Z,30.27
2018-12-22T10:56:07.168Z,30.93
2018-12-22T10:58:35.515Z,31.53
2018-12-22T11:01:03.859Z,29.37
2018-12-22T11:03:32.215Z,27.80
2018-12-22T11:06:00.509Z,24.47
2018-12-22T11:08:28.857Z,23.97
2018-12-22T11:10:57.242Z,24.87
2018-12-22T11:13:25.603Z,26.23
2018-12-22T11:15:53.966Z,26.67
2018-12-22T11:18:22.299Z,23.70
2018-12-22T11:20:51.463Z,22.03
2018-12-22T11:23:20.581Z,19.73
2018-12-22T11:25:48.127Z,26.23
2018-12-22T11:28:16.449Z,35.77
2018-12-22T11:30:45.171Z,53.67
2018-12-22T11:33:13.508Z,28.80
2018-12-22T11:37:05.142Z,36.40
2018-12-22T11:39:33.518Z,43.03
2018-12-22T11:42:02.027Z,32.00
2018-12-22T11:44:30.370Z,27.70
2018-12-22T11:46:58.751Z,61.37
2018-12-22T11:49:27.090Z,32.63
2018-12-22T11:51:55.650Z,36.97
2018-12-22T11:54:23.755Z,55.73
2018-12-22T11:56:52.158Z,77.27
2018-12-22T11:59:20.554Z,73.37
2018-12-22T12:01:48.892Z,43.77
2018-12-22T12:04:17.214Z,33.80
2018-12-22T12:06:45.578Z,31.03
2018-12-22T12:09:14.130Z,30.27
2018-12-22T12:11:42.257Z,25.87
2018-12-22T12:14:10.615Z,29.17
2018-12-22T12:16:38.952Z,29.43
2018-12-22T12:19:07.336Z,25.73
2018-12-22T12:21:35.683Z,24.20
2018-12-22T12:24:04.013Z,23.03
2018-12-22T12:26:32.948Z,22.17
2018-12-22T12:29:01.287Z,20.33
2018-12-22T12:31:29.643Z,20.07
2018-12-22T12:33:58.143Z,23.60
2018-12-22T12:36:26.686Z,18.93
2018-12-22T12:38:54.806Z,19.73
2018-12-22T12:41:23.146Z,21.10
2018-12-22T12:43:51.508Z,27.60
2018-12-22T12:46:20.652Z,22.87
2018-12-22T12:48:48.995Z,26.80
2018-12-22T12:51:17.331Z,22.23
2018-12-22T12:53:45.704Z,21.60
2018-12-22T12:56:14.051Z,18.90
2018-12-22T12:58:42.413Z,23.10
2018-12-22T13:01:11.777Z,22.00
2018-12-22T13:03:40.126Z,19.50
2018-12-22T13:06:09.109Z,20.13
2018-12-22T13:08:37.256Z,19.13
2018-12-22T13:11:05.590Z,17.53
2018-12-22T13:13:35.074Z,17.87
2018-12-22T13:16:03.434Z,17.17
2018-12-22T13:18:31.575Z,16.77
2018-12-22T13:21:00.107Z,15.20
2018-12-22T13:23:28.587Z,12.93
2018-12-22T13:25:56.982Z,20.70
2018-12-22T13:28:25.327Z,12.93
2018-12-22T13:30:53.658Z,16.87
2018-12-22T13:33:22.580Z,18.73
2018-12-22T13:35:50.912Z,15.07
2018-12-22T13:38:19.287Z,16.50
2018-12-22T13:40:47.627Z,13.47
2018-12-22T13:43:15.995Z,13.30
2018-12-22T13:45:45.067Z,12.00
2018-12-22T13:48:16.638Z,11.60
2018-12-22T13:50:45.035Z,14.43
2018-12-22T13:53:13.436Z,18.67
2018-12-22T13:55:43.563Z,15.00
2018-12-22T13:58:10.797Z,13.40
2018-12-22T14:00:39.165Z,33.87
2018-12-22T14:03:07.532Z,27.27
2018-12-22T14:05:35.889Z,15.47
2018-12-22T14:08:06.212Z,17.37
2018-12-22T14:10:36.177Z,14.13
2018-12-22T14:13:03.440Z,16.13
2018-12-22T14:15:32.311Z,14.93
2018-12-22T14:18:02.532Z,14.73
2018-12-22T14:20:30.981Z,10.67
2018-12-22T14:22:59.321Z,13.80
2018-12-22T14:25:27.864Z,11.73
2018-12-22T14:27:57.067Z,18.57
2018-12-22T14:30:25.446Z,10.90
2018-12-22T14:32:53.793Z,13.37
2018-12-22T14:35:22.137Z,71.33
2018-12-22T14:37:50.532Z,12.47
2018-12-22T14:40:19.871Z,17.70
2018-12-22T14:42:48.207Z,16.00
2018-12-22T14:45:16.561Z,16.97
2018-12-22T14:47:44.912Z,15.77
2018-12-22T14:50:13.623Z,18.93
2018-12-22T14:52:42.631Z,16.47
2018-12-22T14:55:11.004Z,15.27
2018-12-22T14:57:41.536Z,17.20
2018-12-22T15:00:09.904Z,16.07
2018-12-22T15:02:38.422Z,13.57
2018-12-22T15:05:07.154Z,13.40
2018-12-22T15:07:35.479Z,11.27
2018-12-22T15:10:03.960Z,9.80
2018-12-22T15:12:32.216Z,10.83
2018-12-22T15:15:00.530Z,12.80
2018-12-22T15:17:29.004Z,10.13
2018-12-22T15:19:57.417Z,33.07
2018-12-22T15:22:26.503Z,11.53
2018-12-22T15:24:54.857Z,15.23
2018-12-22T15:27:22.967Z,14.30
2018-12-22T15:29:51.400Z,10.20
2018-12-22T15:32:19.802Z,14.47
2018-12-22T15:34:48.505Z,13.83
2018-12-22T15:37:16.982Z,19.20
2018-12-22T15:39:45.329Z,18.67
2018-12-22T15:42:13.660Z,14.70
2018-12-22T15:44:42.000Z,11.83
2018-12-22T15:47:10.368Z,10.83
2018-12-22T15:49:39.036Z,11.90
2018-12-22T15:52:07.367Z,11.07
2018-12-22T15:54:36.385Z,9.10
2018-12-22T15:57:05.059Z,14.00
2018-12-22T15:59:33.485Z,10.47
2018-12-22T16:02:01.774Z,20.47
2018-12-22T16:04:30.130Z,11.60
2018-12-22T16:06:58.494Z,10.97
2018-12-22T16:09:26.851Z,9.30
2018-12-22T16:11:55.297Z,10.47
2018-12-22T16:14:23.651Z,10.33
2018-12-22T16:16:51.988Z,9.70
2018-12-22T16:19:20.548Z,8.80
2018-12-22T16:21:49.495Z,8.93
2018-12-22T16:24:17.948Z,11.53
2018-12-22T16:26:46.314Z,10.57
2018-12-22T16:29:14.864Z,9.03
2018-12-22T16:31:44.747Z,13.30
2018-12-22T16:34:13.439Z,14.83
2018-12-22T16:36:42.057Z,13.83
2018-12-22T16:39:10.435Z,13.03
2018-12-22T16:41:38.852Z,16.17
2018-12-22T16:44:07.257Z,16.37
2018-12-22T16:46:35.832Z,20.40
2018-12-22T16:49:03.981Z,15.90
2018-12-22T16:51:38.375Z,17.13
2018-12-22T16:54:07.064Z,24.83
2018-12-22T16:56:35.461Z,18.73
2018-12-22T16:59:04.096Z,18.00
2018-12-22T17:01:32.757Z,18.27
2018-12-22T17:04:01.112Z,18.40
2018-12-22T17:06:29.464Z,22.23
2018-12-22T17:08:57.825Z,15.50
2018-12-22T17:11:26.175Z,17.70
2018-12-22T17:13:54.509Z,16.13
2018-12-22T17:16:22.866Z,20.17
2018-12-22T17:18:51.528Z,24.30
2018-12-22T17:21:20.211Z,23.53
2018-12-22T17:23:52.286Z,22.90
2018-12-22T17:26:20.671Z,19.57
2018-12-22T17:28:49.013Z,21.60
2018-12-22T17:31:17.368Z,20.67
2018-12-22T17:33:45.714Z,20.80
2018-12-22T17:36:17.362Z,29.50
2018-12-22T17:38:45.740Z,23.40
2018-12-22T17:41:14.071Z,24.53
2018-12-22T17:43:44.018Z,20.47
2018-12-22T17:46:12.664Z,21.57
2018-12-22T17:48:41.609Z,24.70
2018-12-22T17:51:09.957Z,22.87
2018-12-22T17:53:38.313Z,21.47
2018-12-22T17:56:06.652Z,28.30
2018-12-22T17:58:35.003Z,30.47
2018-12-22T18:01:03.457Z,24.23
2018-12-22T18:03:31.806Z,24.53
2018-12-22T18:06:00.153Z,54.43
2018-12-22T18:08:28.520Z,25.70
2018-12-22T18:10:56.853Z,24.93
2018-12-22T18:13:44.131Z,23.37
2018-12-22T18:16:32.527Z,22.67
2018-12-22T18:19:00.891Z,20.27
2018-12-22T18:21:29.249Z,19.30
2018-12-22T18:23:57.651Z,14.70
2018-12-22T18:26:26.037Z,16.37
2018-12-22T18:28:54.396Z,18.13
2018-12-22T18:31:22.770Z,13.43
2018-12-22T18:33:52.506Z,14.93
2018-12-22T18:36:19.500Z,14.17
2018-12-22T18:38:49.185Z,9.87
2018-12-22T18:41:17.786Z,10.50
2018-12-22T18:43:45.942Z,10.80
2018-12-22T18:49:07.458Z,17.17
2018-12-22T18:51:45.852Z,13.53
2018-12-22T18:54:14.590Z,17.77
2018-12-22T18:56:58.769Z,12.97
2018-12-22T18:59:36.533Z,8.97
2018-12-22T19:02:04.854Z,8.77
2018-12-22T19:04:33.227Z,9.57
2018-12-22T19:07:01.565Z,10.53
2018-12-22T19:09:29.915Z,9.20
2018-12-22T19:11:58.356Z,12.57
2018-12-22T19:14:26.764Z,10.73
2018-12-22T19:16:55.121Z,7.20
2018-12-22T19:19:27.233Z,9.27
2018-12-22T19:21:55.576Z,9.77
2018-12-22T19:24:23.946Z,8.33
2018-12-22T19:26:52.337Z,7.07
2018-12-22T19:29:20.683Z,6.87
2018-12-22T19:31:49.101Z,13.70
2018-12-22T19:34:17.656Z,20.50
2018-12-22T19:36:47.222Z,10.63
2018-12-22T19:39:15.860Z,8.17
2018-12-22T19:41:44.244Z,7.60
2018-12-22T19:44:13.015Z,7.70
2018-12-22T19:46:41.950Z,6.83
2018-12-22T19:49:10.286Z,10.57
2018-12-22T19:51:38.670Z,8.13
2018-12-22T19:54:07.057Z,9.50
2018-12-22T19:56:37.349Z,8.50
2018-12-22T19:59:05.713Z,8.10
2018-12-22T20:01:34.046Z,8.47
2018-12-22T20:04:02.487Z,6.77
2018-12-22T20:06:31.651Z,7.23
2018-12-22T20:09:00.020Z,179.20
2018-12-22T20:11:28.621Z,63.97
2018-12-22T20:13:57.216Z,9.30
2018-12-22T20:16:28.256Z,7.43
2018-12-22T20:19:01.179Z,7.23
2018-12-22T20:21:29.547Z,10.37
2018-12-22T20:23:58.100Z,13.37
2018-12-22T20:26:26.468Z,11.80
2018-12-22T20:28:56.787Z,13.87
2018-12-22T20:31:25.142Z,14.33
2018-12-22T20:33:54.275Z,11.57
2018-12-22T20:36:22.938Z,10.80
2018-12-22T20:38:51.363Z,13.33
2018-12-22T20:41:20.040Z,15.47
2018-12-22T20:43:49.106Z,17.57
2018-12-22T20:46:17.645Z,17.37
2018-12-22T20:48:46.146Z,15.27
2018-12-22T20:51:14.760Z,12.40
2018-12-22T20:53:45.026Z,15.30
2018-12-22T20:56:13.120Z,11.50
2018-12-22T20:58:41.778Z,10.87
2018-12-22T21:01:10.121Z,11.83
2018-12-22T21:03:38.986Z,22.03
2018-12-22T21:06:09.072Z,21.40
2018-12-22T21:08:37.407Z,20.90
2018-12-22T21:11:05.757Z,13.07
2018-12-22T21:13:34.137Z,11.13
2018-12-22T21:16:03.171Z,8.70
2018-12-22T21:18:31.728Z,10.17
2018-12-22T21:21:00.650Z,10.13
2018-12-22T21:23:29.468Z,14.87
2018-12-22T21:25:57.775Z,11.47
2018-12-22T21:28:26.432Z,11.53
2018-12-22T21:30:55.379Z,24.23
2018-12-22T21:33:23.715Z,9.17
2018-12-22T21:36:03.714Z,11.43
2018-12-22T21:38:32.103Z,9.70
2018-12-22T21:41:00.660Z,9.73
2018-12-22T21:43:29.043Z,11.03
2018-12-22T21:45:57.417Z,14.10
2018-12-22T21:48:25.745Z,5.30
2018-12-22T21:50:54.093Z,12.20
2018-12-22T21:53:22.447Z,12.40
2018-12-22T21:55:50.826Z,11.63
2018-12-22T21:58:19.168Z,10.80
2018-12-22T22:00:47.763Z,15.10
2018-12-22T22:03:16.032Z,19.23
2018-12-22T22:05:47.177Z,21.73
2018-12-22T22:08:16.366Z,37.67
2018-12-22T22:10:44.887Z,19.90
2018-12-22T22:13:13.633Z,21.87
2018-12-22T22:15:42.323Z,18.30
2018-12-22T22:18:10.706Z,17.37
2018-12-22T22:20:39.070Z,20.67
2018-12-22T22:23:07.427Z,22.67
2018-12-22T22:25:35.761Z,19.23
2018-12-22T22:28:04.451Z,19.67
2018-12-22T22:30:33.406Z,17.97
2018-12-22T22:33:02.140Z,17.97
2018-12-22T22:35:30.889Z,20.30
2018-12-22T22:37:59.250Z,22.37
2018-12-22T22:40:27.582Z,19.07
2018-12-22T22:42:55.918Z,15.77
2018-12-22T22:45:24.257Z,13.83
2018-12-22T22:47:52.644Z,15.20
2018-12-22T22:50:21.221Z,14.63
2018-12-22T22:52:49.361Z,14.73
2018-12-22T22:55:17.706Z,11.97
2018-12-22T22:57:46.046Z,13.87
2018-12-22T23:00:14.375Z,33.87
2018-12-22T23:02:42.722Z,11.60
2018-12-22T23:05:11.058Z,18.67
2018-12-22T23:07:39.397Z,15.30
2018-12-22T23:10:07.767Z,15.33
2018-12-22T23:12:36.942Z,15.80
2018-12-22T23:15:05.293Z,16.73
2018-12-22T23:17:33.652Z,16.40
2018-12-22T23:20:02.221Z,13.17
2018-12-22T23:22:30.395Z,12.53
2018-12-22T23:24:58.691Z,13.53
2018-12-22T23:27:27.019Z,15.50
2018-12-22T23:29:55.380Z,14.20
2018-12-22T23:32:23.745Z,15.70
2018-12-22T23:34:52.114Z,15.57
2018-12-22T23:37:21.448Z,14.63
2018-12-22T23:39:49.805Z,13.20
2018-12-22T23:42:18.161Z,12.73
2018-12-22T23:44:46.522Z,11.27
2018-12-22T23:47:14.861Z,15.07
2018-12-22T23:49:43.185Z,16.07
2018-12-22T23:52:11.498Z,13.93
2018-12-22T23:54:39.987Z,13.73
2018-12-22T23:57:08.327Z,16.97
2018-12-22T23:59:36.910Z,13.63
